sensor_id;sensor_type;location;lat;lon;timestamp;pressure;altitude;pressure_sealevel;temperature;humidity
9822;BME280;4950;46.042;14.472;2023-02-22T00:00:25;98198.78;;;6.19;77.14
9822;BME280;4950;46.042;14.472;2023-02-22T00:03:01;98197.94;;;6.19;76.99
9822;BME280;4950;46.042;14.472;2023-02-22T00:05:28;98191.31;;;6.16;76.98
9822;BME280;4950;46.042;14.472;2023-02-22T00:07:57;98198.50;;;6.12;77.10
9822;BME280;4950;46.042;14.472;2023-02-22T00:10:25;98200.25;;;6.12;77.57
9822;BME280;4950;46.042;14.472;2023-02-22T00:12:54;98199.84;;;6.17;76.95
9822;BME280;4950;46.042;14.472;2023-02-22T00:15:23;98198.50;;;6.12;77.09
9822;BME280;4950;46.042;14.472;2023-02-22T00:17:53;98193.75;;;6.08;77.66
9822;BME280;4950;46.042;14.472;2023-02-22T00:20:22;98199.84;;;6.07;77.74
9822;BME280;4950;46.042;14.472;2023-02-22T00:22:49;98200.94;;;6.04;77.74
9822;BME280;4950;46.042;14.472;2023-02-22T00:25:20;98192.13;;;5.97;77.69
9822;BME280;4950;46.042;14.472;2023-02-22T00:27:48;98192.25;;;5.96;77.65
9822;BME280;4950;46.042;14.472;2023-02-22T00:30:19;98192.25;;;5.96;77.98
9822;BME280;4950;46.042;14.472;2023-02-22T00:32:46;98192.38;;;5.94;77.97
9822;BME280;4950;46.042;14.472;2023-02-22T00:35:14;98193.91;;;5.97;77.36
9822;BME280;4950;46.042;14.472;2023-02-22T00:37:42;98190.38;;;5.98;77.82
9822;BME280;4950;46.042;14.472;2023-02-22T00:40:09;98189.81;;;5.94;77.73
9822;BME280;4950;46.042;14.472;2023-02-22T00:42:38;98189.41;;;5.89;77.86
9822;BME280;4950;46.042;14.472;2023-02-22T00:45:05;98182.22;;;5.92;77.54
9822;BME280;4950;46.042;14.472;2023-02-22T00:47:32;98187.09;;;5.86;78.09
9822;BME280;4950;46.042;14.472;2023-02-22T00:49:59;98187.63;;;5.80;77.82
9822;BME280;4950;46.042;14.472;2023-02-22T00:52:26;98186.03;;;5.79;78.08
9822;BME280;4950;46.042;14.472;2023-02-22T00:54:54;98190.50;;;5.77;78.17
9822;BME280;4950;46.042;14.472;2023-02-22T00:57:22;98191.72;;;5.72;78.27
9822;BME280;4950;46.042;14.472;2023-02-22T00:59:51;98187.63;;;5.70;78.27
9822;BME280;4950;46.042;14.472;2023-02-22T01:02:17;98184.38;;;5.68;78.40
9822;BME280;4950;46.042;14.472;2023-02-22T01:04:44;98189.41;;;5.69;78.60
9822;BME280;4950;46.042;14.472;2023-02-22T01:07:11;98181.66;;;5.60;78.03
9822;BME280;4950;46.042;14.472;2023-02-22T01:09:38;98180.56;;;5.62;77.90
9822;BME280;4950;46.042;14.472;2023-02-22T01:12:06;98181.41;;;5.63;78.40
9822;BME280;4950;46.042;14.472;2023-02-22T01:14:33;98176.53;;;5.60;77.90
9822;BME280;4950;46.042;14.472;2023-02-22T01:17:01;98177.50;;;5.59;77.97
9822;BME280;4950;46.042;14.472;2023-02-22T01:19:28;98178.28;;;5.59;77.62
9822;BME280;4950;46.042;14.472;2023-02-22T01:21:56;98172.16;;;5.50;77.85
9822;BME280;4950;46.042;14.472;2023-02-22T01:24:23;98168.91;;;5.48;77.32
9822;BME280;4950;46.042;14.472;2023-02-22T01:26:51;98164.72;;;5.47;77.69
9822;BME280;4950;46.042;14.472;2023-02-22T01:29:18;98170.00;;;5.46;76.90
9822;BME280;4950;46.042;14.472;2023-02-22T01:31:50;98165.28;;;5.41;77.53
9822;BME280;4950;46.042;14.472;2023-02-22T01:34:20;98166.09;;;5.42;77.28
9822;BME280;4950;46.042;14.472;2023-02-22T01:36:47;98165.78;;;5.35;77.67
9822;BME280;4950;46.042;14.472;2023-02-22T01:39:14;98162.41;;;5.34;77.77
9822;BME280;4950;46.042;14.472;2023-02-22T01:41:42;98160.25;;;5.30;78.04
9822;BME280;4950;46.042;14.472;2023-02-22T01:44:17;98154.00;;;5.23;78.40
9822;BME280;4950;46.042;14.472;2023-02-22T01:46:44;98159.16;;;5.23;78.49
9822;BME280;4950;46.042;14.472;2023-02-22T01:49:11;98158.59;;;5.19;78.89
9822;BME280;4950;46.042;14.472;2023-02-22T01:51:42;98153.19;;;5.22;78.74
9822;BME280;4950;46.042;14.472;2023-02-22T01:54:11;98151.53;;;5.21;79.03
9822;BME280;4950;46.042;14.472;2023-02-22T01:56:44;98144.13;;;5.18;79.44
9822;BME280;4950;46.042;14.472;2023-02-22T01:59:13;98145.03;;;5.17;79.36
9822;BME280;4950;46.042;14.472;2023-02-22T02:01:41;98150.06;;;5.19;79.63
9822;BME280;4950;46.042;14.472;2023-02-22T02:04:12;98145.03;;;5.17;79.55
9822;BME280;4950;46.042;14.472;2023-02-22T02:06:41;98147.50;;;5.19;79.35
9822;BME280;4950;46.042;14.472;2023-02-22T02:09:25;98157.09;;;5.07;79.39
9822;BME280;4950;46.042;14.472;2023-02-22T02:11:56;98147.88;;;5.04;79.67
9822;BME280;4950;46.042;14.472;2023-02-22T02:14:25;98148.69;;;5.05;79.26
9822;BME280;4950;46.042;14.472;2023-02-22T02:16:53;98148.00;;;5.03;79.68
9822;BME280;4950;46.042;14.472;2023-02-22T02:19:28;98149.78;;;5.02;79.13
9822;BME280;4950;46.042;14.472;2023-02-22T02:22:21;98145.31;;;5.04;78.85
9822;BME280;4950;46.042;14.472;2023-02-22T02:25:22;98143.13;;;5.00;78.50
9822;BME280;4950;46.042;14.472;2023-02-22T02:28:16;98142.84;;;4.93;78.83
9822;BME280;4950;46.042;14.472;2023-02-22T02:34:12;98133.47;;;4.92;79.44
9822;BME280;4950;46.042;14.472;2023-02-22T02:36:48;98134.97;;;4.85;79.76
9822;BME280;4950;46.042;14.472;2023-02-22T02:39:25;98136.56;;;4.76;80.01
9822;BME280;4950;46.042;14.472;2023-02-22T02:41:53;98134.09;;;4.74;80.19
9822;BME280;4950;46.042;14.472;2023-02-22T02:44:23;98132.50;;;4.73;80.38
9822;BME280;4950;46.042;14.472;2023-02-22T02:46:54;98138.97;;;4.68;80.73
9822;BME280;4950;46.042;14.472;2023-02-22T02:49:29;98134.09;;;4.65;80.40
9822;BME280;4950;46.042;14.472;2023-02-22T02:51:57;98134.22;;;4.63;80.51
9822;BME280;4950;46.042;14.472;2023-02-22T02:54:26;98134.22;;;4.63;80.24
9822;BME280;4950;46.042;14.472;2023-02-22T02:56:54;98130.03;;;4.62;80.33
9822;BME280;4950;46.042;14.472;2023-02-22T02:59:27;98124.75;;;4.64;80.73
9822;BME280;4950;46.042;14.472;2023-02-22T03:02:09;98122.44;;;4.61;80.93
9822;BME280;4950;46.042;14.472;2023-02-22T03:04:59;98124.88;;;4.62;80.80
9822;BME280;4950;46.042;14.472;2023-02-22T03:07:41;98124.75;;;4.64;80.86
9822;BME280;4950;46.042;14.472;2023-02-22T03:10:19;98122.44;;;4.61;80.73
9822;BME280;4950;46.042;14.472;2023-02-22T03:12:56;98123.38;;;4.60;80.68
9822;BME280;4950;46.042;14.472;2023-02-22T03:15:34;98120.38;;;4.54;81.11
9822;BME280;4950;46.042;14.472;2023-02-22T03:18:08;98120.13;;;4.58;81.00
9822;BME280;4950;46.042;14.472;2023-02-22T03:20:42;98124.72;;;4.54;80.68
9822;BME280;4950;46.042;14.472;2023-02-22T03:23:15;98116.31;;;4.52;80.54
9822;BME280;4950;46.042;14.472;2023-02-22T03:25:49;98116.84;;;4.46;80.60
9822;BME280;4950;46.042;14.472;2023-02-22T03:28:19;98119.28;;;4.47;80.50
9822;BME280;4950;46.042;14.472;2023-02-22T03:30:50;98118.34;;;4.48;80.45
9822;BME280;4950;46.042;14.472;2023-02-22T03:33:24;98117.53;;;4.48;80.31
9822;BME280;4950;46.042;14.472;2023-02-22T03:36:04;98114.28;;;4.46;80.36
9822;BME280;4950;46.042;14.472;2023-02-22T03:38:36;98120.47;;;4.43;80.17
9822;BME280;4950;46.042;14.472;2023-02-22T03:41:06;98123.72;;;4.35;80.48
9822;BME280;4950;46.042;14.472;2023-02-22T03:43:36;98129.22;;;4.31;80.22
9822;BME280;4950;46.042;14.472;2023-02-22T03:46:05;98126.09;;;4.27;79.74
9822;BME280;4950;46.042;14.472;2023-02-22T03:48:37;98122.94;;;4.24;79.38
9822;BME280;4950;46.042;14.472;2023-02-22T03:51:09;98126.34;;;4.24;79.53
9822;BME280;4950;46.042;14.472;2023-02-22T03:53:40;98123.91;;;4.23;79.54
9822;BME280;4950;46.042;14.472;2023-02-22T03:56:12;98117.97;;;4.22;79.37
9822;BME280;4950;46.042;14.472;2023-02-22T03:58:41;98120.09;;;4.17;80.00
9822;BME280;4950;46.042;14.472;2023-02-22T04:01:10;98124.31;;;4.18;80.26
9822;BME280;4950;46.042;14.472;2023-02-22T04:03:37;98118.88;;;4.21;80.00
9822;BME280;4950;46.042;14.472;2023-02-22T04:06:05;98119.84;;;4.20;80.25
9822;BME280;4950;46.042;14.472;2023-02-22T04:08:33;98120.34;;;4.14;80.19
9822;BME280;4950;46.042;14.472;2023-02-22T04:11:00;98124.78;;;4.12;80.63
9822;BME280;4950;46.042;14.472;2023-02-22T04:13:26;98122.50;;;4.09;80.68
9822;BME280;4950;46.042;14.472;2023-02-22T04:15:53;98123.84;;;4.13;80.69
9822;BME280;4950;46.042;14.472;2023-02-22T04:18:20;98124.09;;;4.10;80.78
9822;BME280;4950;46.042;14.472;2023-02-22T04:20:47;98124.94;;;4.10;80.43
9822;BME280;4950;46.042;14.472;2023-02-22T04:23:15;98127.88;;;4.06;80.69
9822;BME280;4950;46.042;14.472;2023-02-22T04:25:43;98120.44;;;4.03;80.64
9822;BME280;4950;46.042;14.472;2023-02-22T04:28:10;98117.03;;;4.02;80.50
9822;BME280;4950;46.042;14.472;2023-02-22T04:30:37;98114.84;;;3.98;80.44
9822;BME280;4950;46.042;14.472;2023-02-22T04:33:03;98117.91;;;3.91;80.59
9822;BME280;4950;46.042;14.472;2023-02-22T04:35:30;98118.84;;;3.90;80.98
9822;BME280;4950;46.042;14.472;2023-02-22T04:37:57;98117.81;;;3.93;80.80
9822;BME280;4950;46.042;14.472;2023-02-22T04:40:24;98109.53;;;3.89;80.35
9822;BME280;4950;46.042;14.472;2023-02-22T04:42:52;98112.34;;;3.86;80.86
9822;BME280;4950;46.042;14.472;2023-02-22T04:45:18;98116.66;;;3.86;80.80
9822;BME280;4950;46.042;14.472;2023-02-22T04:47:45;98112.09;;;3.89;80.39
9822;BME280;4950;46.042;14.472;2023-02-22T04:50:12;98110.34;;;3.90;80.67
9822;BME280;4950;46.042;14.472;2023-02-22T04:52:39;98121.41;;;3.90;80.22
9822;BME280;4950;46.042;14.472;2023-02-22T04:55:06;98121.50;;;3.79;80.71
9822;BME280;4950;46.042;14.472;2023-02-22T04:57:34;98118.59;;;3.72;81.03
9822;BME280;4950;46.042;14.472;2023-02-22T05:00:03;98109.84;;;3.75;81.18
9822;BME280;4950;46.042;14.472;2023-02-22T05:02:30;98112.66;;;3.72;81.09
9822;BME280;4950;46.042;14.472;2023-02-22T05:04:56;98111.03;;;3.71;80.82
9822;BME280;4950;46.042;14.472;2023-02-22T05:07:23;98112.66;;;3.72;80.98
9822;BME280;4950;46.042;14.472;2023-02-22T05:09:50;98108.44;;;3.71;80.83
9822;BME280;4950;46.042;14.472;2023-02-22T05:12:16;98108.44;;;3.71;80.66
9822;BME280;4950;46.042;14.472;2023-02-22T05:14:43;98113.59;;;3.71;80.62
9822;BME280;4950;46.042;14.472;2023-02-22T05:17:11;98113.97;;;3.66;80.24
9822;BME280;4950;46.042;14.472;2023-02-22T05:19:38;98115.84;;;3.64;80.60
9822;BME280;4950;46.042;14.472;2023-02-22T05:22:05;98116.78;;;3.63;80.55
9822;BME280;4950;46.042;14.472;2023-02-22T05:24:32;98113.78;;;3.58;81.16
9822;BME280;4950;46.042;14.472;2023-02-22T05:26:59;98111.22;;;3.58;80.83
9822;BME280;4950;46.042;14.472;2023-02-22T05:29:26;98112.72;;;3.61;80.72
9822;BME280;4950;46.042;14.472;2023-02-22T05:31:52;98113.53;;;3.61;81.08
9822;BME280;4950;46.042;14.472;2023-02-22T05:34:20;98107.59;;;3.61;80.88
9822;BME280;4950;46.042;14.472;2023-02-22T05:36:48;98121.59;;;3.56;81.15
9822;BME280;4950;46.042;14.472;2023-02-22T05:39:15;98113.34;;;3.53;81.51
9822;BME280;4950;46.042;14.472;2023-02-22T05:41:41;98115.22;;;3.51;80.61
9822;BME280;4950;46.042;14.472;2023-02-22T05:44:08;98117.88;;;3.49;81.05
9822;BME280;4950;46.042;14.472;2023-02-22T05:46:35;98124.09;;;3.47;80.79
9822;BME280;4950;46.042;14.472;2023-02-22T05:49:01;98120.84;;;3.45;81.33
9822;BME280;4950;46.042;14.472;2023-02-22T05:51:30;98122.47;;;3.46;80.88
9822;BME280;4950;46.042;14.472;2023-02-22T05:53:58;98122.72;;;3.43;81.48
9822;BME280;4950;46.042;14.472;2023-02-22T05:56:27;98121.06;;;3.42;81.60
9822;BME280;4950;46.042;14.472;2023-02-22T05:58:55;98127.47;;;3.47;81.76
9822;BME280;4950;46.042;14.472;2023-02-22T06:01:23;98128.16;;;3.49;81.17
9822;BME280;4950;46.042;14.472;2023-02-22T06:03:50;98122.91;;;3.51;81.10
9822;BME280;4950;46.042;14.472;2023-02-22T06:06:18;98123.41;;;3.45;80.86
9822;BME280;4950;46.042;14.472;2023-02-22T06:08:46;98128.53;;;3.45;81.49
9822;BME280;4950;46.042;14.472;2023-02-22T06:11:13;98127.47;;;3.47;81.44
9822;BME280;4950;46.042;14.472;2023-02-22T06:13:40;98131.22;;;3.43;81.80
9822;BME280;4950;46.042;14.472;2023-02-22T06:16:06;98138.00;;;3.44;82.20
9822;BME280;4950;46.042;14.472;2023-02-22T06:18:33;98138.22;;;3.41;82.53
9822;BME280;4950;46.042;14.472;2023-02-22T06:21:00;98139.38;;;3.48;82.30
9822;BME280;4950;46.042;14.472;2023-02-22T06:23:27;98141.25;;;3.46;81.77
9822;BME280;4950;46.042;14.472;2023-02-22T06:25:55;98145.69;;;3.44;82.44
9822;BME280;4950;46.042;14.472;2023-02-22T06:28:21;98152.44;;;3.45;82.23
9822;BME280;4950;46.042;14.472;2023-02-22T06:30:49;98152.63;;;3.53;81.97
9822;BME280;4950;46.042;14.472;2023-02-22T06:33:16;98153.69;;;3.51;81.71
9822;BME280;4950;46.042;14.472;2023-02-22T06:35:43;98170.53;;;3.44;82.04
9822;BME280;4950;46.042;14.472;2023-02-22T06:38:11;98171.16;;;3.36;82.24
9822;BME280;4950;46.042;14.472;2023-02-22T06:40:45;98170.31;;;3.35;83.35
9822;BME280;4950;46.042;14.472;2023-02-22T06:43:14;98175.31;;;3.37;82.65
9822;BME280;4950;46.042;14.472;2023-02-22T06:45:41;98176.50;;;3.33;83.25
9822;BME280;4950;46.042;14.472;2023-02-22T06:48:07;98173.03;;;3.23;83.38
9822;BME280;4950;46.042;14.472;2023-02-22T06:50:34;98182.00;;;3.28;84.04
9822;BME280;4950;46.042;14.472;2023-02-22T06:53:01;98178.47;;;3.41;83.59
9822;BME280;4950;46.042;14.472;2023-02-22T06:55:29;98182.91;;;3.39;83.84
9822;BME280;4950;46.042;14.472;2023-02-22T06:57:57;98185.78;;;3.45;83.50
9822;BME280;4950;46.042;14.472;2023-02-22T07:00:26;98184.84;;;3.58;83.50
9822;BME280;4950;46.042;14.472;2023-02-22T07:02:55;98186.81;;;3.65;83.49
9822;BME280;4950;46.042;14.472;2023-02-22T07:05:23;98180.47;;;3.69;83.11
9822;BME280;4950;46.042;14.472;2023-02-22T07:07:51;98183.59;;;3.73;83.65
9822;BME280;4950;46.042;14.472;2023-02-22T07:10:21;98192.00;;;3.75;83.85
9822;BME280;4950;46.042;14.472;2023-02-22T07:12:49;98185.94;;;3.76;83.68
9822;BME280;4950;46.042;14.472;2023-02-22T07:15:17;98196.38;;;3.84;83.76
9822;BME280;4950;46.042;14.472;2023-02-22T07:17:47;98201.28;;;3.87;84.02
9822;BME280;4950;46.042;14.472;2023-02-22T07:20:14;98196.72;;;3.91;83.79
9822;BME280;4950;46.042;14.472;2023-02-22T07:22:41;98192.00;;;3.96;83.84
9822;BME280;4950;46.042;14.472;2023-02-22T07:25:09;98191.66;;;4.01;83.81
9822;BME280;4950;46.042;14.472;2023-02-22T07:27:37;98193.72;;;4.07;83.97
9822;BME280;4950;46.042;14.472;2023-02-22T07:30:05;98189.28;;;4.09;84.02
9822;BME280;4950;46.042;14.472;2023-02-22T07:32:32;98187.38;;;4.11;83.54
9822;BME280;4950;46.042;14.472;2023-02-22T07:35:00;98190.41;;;4.16;84.07
9822;BME280;4950;46.042;14.472;2023-02-22T07:37:27;98185.97;;;4.18;83.86
9822;BME280;4950;46.042;14.472;2023-02-22T07:39:54;98186.38;;;4.23;83.87
9822;BME280;4950;46.042;14.472;2023-02-22T07:42:21;98177.78;;;4.34;83.95
9822;BME280;4950;46.042;14.472;2023-02-22T07:44:48;98185.81;;;4.41;84.38
9822;BME280;4950;46.042;14.472;2023-02-22T07:47:14;98181.47;;;4.41;84.23
9822;BME280;4950;46.042;14.472;2023-02-22T07:49:41;98172.72;;;4.44;84.02
9822;BME280;4950;46.042;14.472;2023-02-22T07:52:09;98179.47;;;4.45;84.20
9822;BME280;4950;46.042;14.472;2023-02-22T07:54:37;98175.56;;;4.50;84.19
9822;BME280;4950;46.042;14.472;2023-02-22T07:57:03;98173.84;;;4.61;84.46
9822;BME280;4950;46.042;14.472;2023-02-22T07:59:30;98171.59;;;4.67;84.22
9822;BME280;4950;46.042;14.472;2023-02-22T08:01:58;98176.91;;;4.75;84.06
9822;BME280;4950;46.042;14.472;2023-02-22T08:04:24;98169.66;;;4.90;83.82
9822;BME280;4950;46.042;14.472;2023-02-22T08:06:51;98166.00;;;5.03;83.62
9822;BME280;4950;46.042;14.472;2023-02-22T08:09:19;98167.41;;;5.17;83.34
9822;BME280;4950;46.042;14.472;2023-02-22T08:11:47;98166.19;;;5.30;82.40
9822;BME280;4950;46.042;14.472;2023-02-22T08:14:15;98164.06;;;5.55;80.86
9822;BME280;4950;46.042;14.472;2023-02-22T08:16:41;98157.28;;;5.64;80.25
9822;BME280;4950;46.042;14.472;2023-02-22T08:19:08;98158.91;;;5.74;82.38
9822;BME280;4950;46.042;14.472;2023-02-22T08:21:35;98156.72;;;5.89;80.62
9822;BME280;4950;46.042;14.472;2023-02-22T08:24:02;98158.25;;;6.02;78.83
9822;BME280;4950;46.042;14.472;2023-02-22T08:26:30;98153.19;;;6.10;78.96
9822;BME280;4950;46.042;14.472;2023-02-22T08:28:57;98156.84;;;6.17;78.34
9822;BME280;4950;46.042;14.472;2023-02-22T08:31:23;98158.56;;;6.26;78.57
9822;BME280;4950;46.042;14.472;2023-02-22T08:33:50;98152.84;;;6.32;77.30
9822;BME280;4950;46.042;14.472;2023-02-22T08:36:17;98152.59;;;6.36;77.13
9822;BME280;4950;46.042;14.472;2023-02-22T08:38:43;98154.13;;;6.56;76.67
9822;BME280;4950;46.042;14.472;2023-02-22T08:41:10;98146.88;;;6.69;76.33
9822;BME280;4950;46.042;14.472;2023-02-22T08:43:38;98159.75;;;6.79;76.22
9822;BME280;4950;46.042;14.472;2023-02-22T08:46:05;98152.56;;;7.01;75.77
9822;BME280;4950;46.042;14.472;2023-02-22T08:48:31;98149.53;;;7.15;74.86
9822;BME280;4950;46.042;14.472;2023-02-22T08:50:58;98151.59;;;7.29;73.79
9822;BME280;4950;46.042;14.472;2023-02-22T08:53:25;98150.06;;;7.37;73.63
9822;BME280;4950;46.042;14.472;2023-02-22T08:55:52;98152.19;;;7.41;72.82
9822;BME280;4950;46.042;14.472;2023-02-22T08:58:19;98148.41;;;7.54;73.57
9822;BME280;4950;46.042;14.472;2023-02-22T09:00:47;98143.25;;;7.71;72.74
9822;BME280;4950;46.042;14.472;2023-02-22T09:03:14;98149.13;;;8.00;71.38
9822;BME280;4950;46.042;14.472;2023-02-22T09:05:41;98142.72;;;8.12;70.89
9822;BME280;4950;46.042;14.472;2023-02-22T09:08:08;98148.16;;;8.27;70.48
9822;BME280;4950;46.042;14.472;2023-02-22T09:10:35;98142.84;;;8.28;69.92
9822;BME280;4950;46.042;14.472;2023-02-22T09:13:02;98142.28;;;8.43;69.63
9822;BME280;4950;46.042;14.472;2023-02-22T09:15:30;98146.66;;;8.42;69.98
9822;BME280;4950;46.042;14.472;2023-02-22T09:17:59;98138.00;;;8.52;69.89
9822;BME280;4950;46.042;14.472;2023-02-22T09:20:26;98134.50;;;8.69;68.61
9822;BME280;4950;46.042;14.472;2023-02-22T09:22:53;98131.63;;;8.88;68.40
9822;BME280;4950;46.042;14.472;2023-02-22T09:25:21;98133.66;;;9.03;68.26
9822;BME280;4950;46.042;14.472;2023-02-22T09:27:49;98130.28;;;9.35;68.51
9822;BME280;4950;46.042;14.472;2023-02-22T09:30:20;98125.47;;;9.65;67.32
9822;BME280;4950;46.042;14.472;2023-02-22T09:32:49;98125.47;;;9.81;65.09
9822;BME280;4950;46.042;14.472;2023-02-22T09:35:17;98117.31;;;10.09;65.67
9822;BME280;4950;46.042;14.472;2023-02-22T09:37:44;98115.88;;;10.31;64.75
9822;BME280;4950;46.042;14.472;2023-02-22T09:40:15;98125.34;;;10.55;63.90
9822;BME280;4950;46.042;14.472;2023-02-22T09:43:01;98123.47;;;10.80;62.57
9822;BME280;4950;46.042;14.472;2023-02-22T09:45:31;98116.38;;;10.97;62.14
9822;BME280;4950;46.042;14.472;2023-02-22T09:48:02;98124.81;;;10.99;61.63
9822;BME280;4950;46.042;14.472;2023-02-22T09:50:37;98117.72;;;10.93;62.34
9822;BME280;4950;46.042;14.472;2023-02-22T09:53:16;98118.72;;;10.92;62.87
9822;BME280;4950;46.042;14.472;2023-02-22T09:55:55;98121.56;;;11.05;62.33
9822;BME280;4950;46.042;14.472;2023-02-22T09:58:25;98112.81;;;11.30;61.74
9822;BME280;4950;46.042;14.472;2023-02-22T10:00:57;98110.38;;;11.51;60.56
9822;BME280;4950;46.042;14.472;2023-02-22T10:03:34;98108.09;;;11.48;61.16
9822;BME280;4950;46.042;14.472;2023-02-22T10:06:10;98100.69;;;11.60;60.24
9822;BME280;4950;46.042;14.472;2023-02-22T10:08:39;98098.31;;;11.73;60.49
9822;BME280;4950;46.042;14.472;2023-02-22T10:11:12;98095.66;;;11.81;59.69
9822;BME280;4950;46.042;14.472;2023-02-22T10:13:52;98094.28;;;12.09;60.38
9822;BME280;4950;46.042;14.472;2023-02-22T10:16:24;98094.31;;;12.23;59.05
9822;BME280;4950;46.042;14.472;2023-02-22T10:19:09;98087.13;;;12.40;58.32
9822;BME280;4950;46.042;14.472;2023-02-22T10:22:03;98084.03;;;12.52;57.44
9822;BME280;4950;46.042;14.472;2023-02-22T10:24:40;98086.47;;;12.68;57.50
9822;BME280;4950;46.042;14.472;2023-02-22T10:27:15;98074.09;;;12.92;56.94
9822;BME280;4950;46.042;14.472;2023-02-22T10:29:45;98073.56;;;13.18;55.98
9822;BME280;4950;46.042;14.472;2023-02-22T10:32:18;98072.75;;;13.17;56.31
9822;BME280;4950;46.042;14.472;2023-02-22T10:34:49;98060.00;;;13.44;55.51
9822;BME280;4950;46.042;14.472;2023-02-22T10:37:23;98057.06;;;13.54;55.30
9822;BME280;4950;46.042;14.472;2023-02-22T10:39:54;98048.50;;;13.60;54.59
9822;BME280;4950;46.042;14.472;2023-02-22T10:42:25;98052.97;;;13.73;54.94
9822;BME280;4950;46.042;14.472;2023-02-22T10:44:52;98050.63;;;13.78;54.32
9822;BME280;4950;46.042;14.472;2023-02-22T10:47:19;98036.78;;;13.77;54.04
9822;BME280;4950;46.042;14.472;2023-02-22T10:49:49;98039.25;;;13.92;53.77
9822;BME280;4950;46.042;14.472;2023-02-22T10:52:23;98032.72;;;14.03;53.75
9822;BME280;4950;46.042;14.472;2023-02-22T10:54:51;98032.19;;;14.14;53.32
9822;BME280;4950;46.042;14.472;2023-02-22T10:57:21;98029.78;;;14.19;53.29
9822;BME280;4950;46.042;14.472;2023-02-22T10:59:48;98028.44;;;14.37;52.02
9822;BME280;4950;46.042;14.472;2023-02-22T11:02:18;98029.56;;;14.63;51.50
9822;BME280;4950;46.042;14.472;2023-02-22T11:04:46;98018.31;;;14.62;50.76
9822;BME280;4950;46.042;14.472;2023-02-22T11:07:27;98020.66;;;14.50;51.25
9822;BME280;4950;46.042;14.472;2023-02-22T11:09:56;98008.63;;;14.49;51.55
9822;BME280;4950;46.042;14.472;2023-02-22T11:12:30;98004.63;;;14.53;51.59
9822;BME280;4950;46.042;14.472;2023-02-22T11:15:18;97996.47;;;14.76;51.20
9822;BME280;4950;46.042;14.472;2023-02-22T11:17:52;97993.63;;;14.78;51.17
9822;BME280;4950;46.042;14.472;2023-02-22T11:20:22;97992.84;;;14.84;51.01
9822;BME280;4950;46.042;14.472;2023-02-22T11:22:51;97976.00;;;15.20;50.08
9822;BME280;4950;46.042;14.472;2023-02-22T11:25:21;97972.56;;;15.53;49.47
9822;BME280;4950;46.042;14.472;2023-02-22T11:27:48;97970.56;;;15.42;49.39
9822;BME280;4950;46.042;14.472;2023-02-22T11:30:21;97969.34;;;15.44;49.30
9822;BME280;4950;46.042;14.472;2023-02-22T11:32:53;97961.09;;;15.40;49.48
9822;BME280;4950;46.042;14.472;2023-02-22T11:35:38;97957.69;;;15.47;49.40
9822;BME280;4950;46.042;14.472;2023-02-22T11:38:20;97946.97;;;15.68;48.58
9822;BME280;4950;46.042;14.472;2023-02-22T11:41:05;97939.88;;;15.89;48.50
9822;BME280;4950;46.042;14.472;2023-02-22T11:43:32;97944.66;;;16.05;47.89
9822;BME280;4950;46.042;14.472;2023-02-22T11:46:02;97938.00;;;16.03;48.44
9822;BME280;4950;46.042;14.472;2023-02-22T11:48:31;97940.78;;;16.14;48.34
9822;BME280;4950;46.042;14.472;2023-02-22T11:51:21;97934.94;;;16.19;48.20
9822;BME280;4950;46.042;14.472;2023-02-22T11:54:11;97926.38;;;16.37;48.28
9822;BME280;4950;46.042;14.472;2023-02-22T11:56:50;97920.13;;;16.70;47.82
9822;BME280;4950;46.042;14.472;2023-02-22T11:59:26;97915.28;;;16.98;46.70
9822;BME280;4950;46.042;14.472;2023-02-22T12:02:04;97913.25;;;17.26;46.31
9822;BME280;4950;46.042;14.472;2023-02-22T12:05:10;97910.75;;;17.56;45.65
9822;BME280;4950;46.042;14.472;2023-02-22T12:07:50;97905.00;;;17.84;44.89
9822;BME280;4950;46.042;14.472;2023-02-22T12:10:35;97898.34;;;18.00;44.76
9822;BME280;4950;46.042;14.472;2023-02-22T12:13:21;97896.38;;;18.26;44.50
9822;BME280;4950;46.042;14.472;2023-02-22T12:15:56;97890.16;;;18.39;43.80
9822;BME280;4950;46.042;14.472;2023-02-22T12:18:31;97892.16;;;18.25;43.36
9822;BME280;4950;46.042;14.472;2023-02-22T12:21:08;97887.91;;;18.24;43.75
9822;BME280;4950;46.042;14.472;2023-02-22T12:23:42;97884.28;;;18.25;43.39
9822;BME280;4950;46.042;14.472;2023-02-22T12:26:14;97883.66;;;18.11;43.40
9822;BME280;4950;46.042;14.472;2023-02-22T12:28:46;97878.78;;;18.14;43.66
9822;BME280;4950;46.042;14.472;2023-02-22T12:31:20;97878.47;;;18.04;43.99
9822;BME280;4950;46.042;14.472;2023-02-22T12:33:53;97876.88;;;18.33;43.55
9822;BME280;4950;46.042;14.472;2023-02-22T12:36:35;97864.88;;;18.38;43.65
9822;BME280;4950;46.042;14.472;2023-02-22T12:39:20;97856.38;;;18.54;43.25
9822;BME280;4950;46.042;14.472;2023-02-22T12:41:53;97860.59;;;18.79;43.13
9822;BME280;4950;46.042;14.472;2023-02-22T12:44:24;97852.22;;;19.00;42.13
9822;BME280;4950;46.042;14.472;2023-02-22T12:46:55;97850.00;;;19.21;41.44
9822;BME280;4950;46.042;14.472;2023-02-22T12:49:30;97839.81;;;19.36;41.05
9822;BME280;4950;46.042;14.472;2023-02-22T12:52:03;97837.91;;;19.60;41.12
9822;BME280;4950;46.042;14.472;2023-02-22T12:54:42;97834.34;;;19.66;40.40
9822;BME280;4950;46.042;14.472;2023-02-22T12:57:17;97831.66;;;19.90;39.77
9822;BME280;4950;46.042;14.472;2023-02-22T12:59:48;97833.06;;;20.09;39.53
9822;BME280;4950;46.042;14.472;2023-02-22T13:02:19;97832.97;;;20.33;39.14
9822;BME280;4950;46.042;14.472;2023-02-22T13:04:48;97834.09;;;20.37;38.95
9822;BME280;4950;46.042;14.472;2023-02-22T13:07:25;97834.28;;;20.19;38.96
9822;BME280;4950;46.042;14.472;2023-02-22T13:10:19;97826.03;;;20.15;38.86
9822;BME280;4950;46.042;14.472;2023-02-22T13:12:55;97829.13;;;20.24;39.06
9822;BME280;4950;46.042;14.472;2023-02-22T13:15:34;97816.59;;;20.31;37.62
9822;BME280;4950;46.042;14.472;2023-02-22T13:18:07;97817.63;;;20.30;37.33
9822;BME280;4950;46.042;14.472;2023-02-22T13:20:40;97815.00;;;20.47;38.06
9822;BME280;4950;46.042;14.472;2023-02-22T13:23:14;97811.66;;;20.68;37.70
9822;BME280;4950;46.042;14.472;2023-02-22T13:25:47;97807.63;;;20.83;37.60
9822;BME280;4950;46.042;14.472;2023-02-22T13:28:24;97805.47;;;20.97;37.48
9822;BME280;4950;46.042;14.472;2023-02-22T13:31:08;97808.84;;;20.92;37.34
9822;BME280;4950;46.042;14.472;2023-02-22T13:33:49;97808.69;;;20.65;37.82
9822;BME280;4950;46.042;14.472;2023-02-22T13:36:35;97800.91;;;20.58;38.02
9822;BME280;4950;46.042;14.472;2023-02-22T13:39:17;97801.25;;;20.62;37.68
9822;BME280;4950;46.042;14.472;2023-02-22T13:42:02;97795.78;;;20.85;37.73